sensor_id;sensor_type;location;lat;lon;timestamp;P1;durP1;ratioP1;P2;durP2;ratioP2
5630;SDS011;2837;50.990;7.124;2023-01-26T06:02:51;179.63;;;13.97;;
5630;SDS011;2837;50.990;7.124;2023-01-26T06:05:17;182.47;;;15.40;;
5630;SDS011;2837;50.990;7.124;2023-01-26T06:07:43;183.87;;;14.33;;
5630;SDS011;2837;50.990;7.124;2023-01-26T06:10:09;182.33;;;15.30;;
5630;SDS011;2837;50.990;7.124;2023-01-26T06:12:35;180.17;;;15.07;;
5630;SDS011;2837;50.990;7.124;2023-01-26T06:15:02;178.60;;;13.77;;
5630;SDS011;2837;50.990;7.124;2023-01-26T06:17:29;182.73;;;14.37;;
5630;SDS011;2837;50.990;7.124;2023-01-26T06:19:54;176.20;;;13.37;;
5630;SDS011;2837;50.990;7.124;2023-01-26T06:22:20;174.90;;;13.30;;
5630;SDS011;2837;50.990;7.124;2023-01-26T06:24:46;179.57;;;14.17;;
5630;SDS011;2837;50.990;7.124;2023-01-26T06:27:15;176.93;;;13.67;;
5630;SDS011;2837;50.990;7.124;2023-01-26T06:29:42;174.53;;;12.90;;
5630;SDS011;2837;50.990;7.124;2023-01-26T06:32:09;177.63;;;13.17;;
5630;SDS011;2837;50.990;7.124;2023-01-26T06:34:35;174.83;;;12.57;;
5630;SDS011;2837;50.990;7.124;2023-01-26T06:37:01;175.80;;;13.37;;
5630;SDS011;2837;50.990;7.124;2023-01-26T06:39:26;176.37;;;13.00;;
5630;SDS011;2837;50.990;7.124;2023-01-26T06:41:52;174.87;;;11.80;;
5630;SDS011;2837;50.990;7.124;2023-01-26T06:44:17;177.27;;;12.93;;
5630;SDS011;2837;50.990;7.124;2023-01-26T06:46:43;176.67;;;12.70;;
5630;SDS011;2837;50.990;7.124;2023-01-26T06:49:08;178.77;;;13.43;;
5630;SDS011;2837;50.990;7.124;2023-01-26T06:54:08;183.33;;;14.80;;
5630;SDS011;2837;50.990;7.124;2023-01-26T06:56:35;177.13;;;13.80;;
5630;SDS011;2837;50.990;7.124;2023-01-26T06:59:00;178.90;;;13.43;;
5630;SDS011;2837;50.990;7.124;2023-01-26T07:01:26;176.57;;;13.40;;
5630;SDS011;2837;50.990;7.124;2023-01-26T07:03:53;178.77;;;13.33;;
5630;SDS011;2837;50.990;7.124;2023-01-26T07:06:19;174.33;;;12.80;;
5630;SDS011;2837;50.990;7.124;2023-01-26T07:08:45;178.60;;;12.77;;
5630;SDS011;2837;50.990;7.124;2023-01-26T07:11:11;176.73;;;13.70;;
5630;SDS011;2837;50.990;7.124;2023-01-26T07:13:37;172.87;;;12.90;;
5630;SDS011;2837;50.990;7.124;2023-01-26T07:16:04;178.53;;;12.80;;
5630;SDS011;2837;50.990;7.124;2023-01-26T07:18:32;178.80;;;14.00;;
5630;SDS011;2837;50.990;7.124;2023-01-26T07:21:01;176.43;;;12.90;;
5630;SDS011;2837;50.990;7.124;2023-01-26T07:23:30;182.10;;;13.47;;
5630;SDS011;2837;50.990;7.124;2023-01-26T07:25:55;171.07;;;11.70;;
5630;SDS011;2837;50.990;7.124;2023-01-26T07:28:21;177.03;;;12.67;;
5630;SDS011;2837;50.990;7.124;2023-01-26T07:30:47;176.57;;;12.97;;
5630;SDS011;2837;50.990;7.124;2023-01-26T07:33:13;174.77;;;12.80;;
5630;SDS011;2837;50.990;7.124;2023-01-26T07:35:39;173.47;;;12.13;;
5630;SDS011;2837;50.990;7.124;2023-01-26T07:38:05;174.43;;;12.10;;
5630;SDS011;2837;50.990;7.124;2023-01-26T07:40:31;175.40;;;11.33;;
5630;SDS011;2837;50.990;7.124;2023-01-26T07:42:56;175.80;;;11.90;;
5630;SDS011;2837;50.990;7.124;2023-01-26T07:45:23;174.20;;;12.80;;
5630;SDS011;2837;50.990;7.124;2023-01-26T07:47:49;171.77;;;12.10;;
5630;SDS011;2837;50.990;7.124;2023-01-26T07:50:14;176.10;;;12.37;;
5630;SDS011;2837;50.990;7.124;2023-01-26T07:52:40;175.07;;;12.40;;
5630;SDS011;2837;50.990;7.124;2023-01-26T07:55:07;170.97;;;12.43;;
5630;SDS011;2837;50.990;7.124;2023-01-26T07:57:33;174.77;;;12.90;;
5630;SDS011;2837;50.990;7.124;2023-01-26T07:59:58;174.33;;;12.30;;
5630;SDS011;2837;50.990;7.124;2023-01-26T08:02:24;170.47;;;11.80;;
5630;SDS011;2837;50.990;7.124;2023-01-26T08:04:49;173.83;;;12.87;;
5630;SDS011;2837;50.990;7.124;2023-01-26T08:07:15;172.07;;;11.37;;
5630;SDS011;2837;50.990;7.124;2023-01-26T08:09:41;172.23;;;11.93;;
5630;SDS011;2837;50.990;7.124;2023-01-26T08:12:06;175.07;;;12.40;;
5630;SDS011;2837;50.990;7.124;2023-01-26T08:14:32;174.47;;;12.37;;
5630;SDS011;2837;50.990;7.124;2023-01-26T08:16:58;175.17;;;12.50;;
5630;SDS011;2837;50.990;7.124;2023-01-26T08:19:23;173.13;;;12.37;;
5630;SDS011;2837;50.990;7.124;2023-01-26T08:21:49;174.13;;;12.37;;
5630;SDS011;2837;50.990;7.124;2023-01-26T08:24:15;174.27;;;13.20;;
5630;SDS011;2837;50.990;7.124;2023-01-26T08:26:41;175.00;;;12.30;;
5630;SDS011;2837;50.990;7.124;2023-01-26T08:29:06;181.00;;;14.00;;
5630;SDS011;2837;50.990;7.124;2023-01-26T08:31:32;180.20;;;13.07;;
5630;SDS011;2837;50.990;7.124;2023-01-26T08:33:58;173.57;;;12.90;;
5630;SDS011;2837;50.990;7.124;2023-01-26T08:36:23;174.37;;;11.80;;
5630;SDS011;2837;50.990;7.124;2023-01-26T08:38:49;173.63;;;11.93;;
5630;SDS011;2837;50.990;7.124;2023-01-26T08:41:16;175.07;;;12.93;;
5630;SDS011;2837;50.990;7.124;2023-01-26T08:43:42;175.03;;;12.43;;
5630;SDS011;2837;50.990;7.124;2023-01-26T08:46:07;178.13;;;12.13;;
5630;SDS011;2837;50.990;7.124;2023-01-26T08:48:33;172.27;;;12.10;;
5630;SDS011;2837;50.990;7.124;2023-01-26T08:50:59;175.50;;;12.57;;
5630;SDS011;2837;50.990;7.124;2023-01-26T08:53:28;176.87;;;12.00;;
5630;SDS011;2837;50.990;7.124;2023-01-26T08:55:56;177.43;;;12.97;;
5630;SDS011;2837;50.990;7.124;2023-01-26T08:58:21;171.10;;;11.50;;
5630;SDS011;2837;50.990;7.124;2023-01-26T09:00:47;176.57;;;12.60;;
5630;SDS011;2837;50.990;7.124;2023-01-26T09:03:13;174.43;;;12.30;;
5630;SDS011;2837;50.990;7.124;2023-01-26T09:05:39;175.73;;;12.40;;
5630;SDS011;2837;50.990;7.124;2023-01-26T09:08:05;173.87;;;12.90;;
5630;SDS011;2837;50.990;7.124;2023-01-26T09:10:32;174.77;;;12.43;;
5630;SDS011;2837;50.990;7.124;2023-01-26T09:12:58;175.80;;;12.50;;
5630;SDS011;2837;50.990;7.124;2023-01-26T09:15:24;173.87;;;12.00;;
5630;SDS011;2837;50.990;7.124;2023-01-26T09:17:50;178.07;;;13.53;;
5630;SDS011;2837;50.990;7.124;2023-01-26T09:20:16;176.37;;;13.60;;
5630;SDS011;2837;50.990;7.124;2023-01-26T09:22:42;175.87;;;12.70;;
5630;SDS011;2837;50.990;7.124;2023-01-26T09:25:09;177.30;;;12.93;;
5630;SDS011;2837;50.990;7.124;2023-01-26T09:27:35;177.47;;;13.87;;
5630;SDS011;2837;50.990;7.124;2023-01-26T09:30:01;177.87;;;14.10;;
5630;SDS011;2837;50.990;7.124;2023-01-26T09:32:28;177.43;;;13.70;;
5630;SDS011;2837;50.990;7.124;2023-01-26T09:34:54;177.30;;;13.83;;
5630;SDS011;2837;50.990;7.124;2023-01-26T09:37:20;179.30;;;13.70;;
5630;SDS011;2837;50.990;7.124;2023-01-26T09:39:46;174.77;;;13.13;;
5630;SDS011;2837;50.990;7.124;2023-01-26T09:50:18;180.07;;;14.37;;
5630;SDS011;2837;50.990;7.124;2023-01-26T09:52:53;174.77;;;13.40;;
5630;SDS011;2837;50.990;7.124;2023-01-26T09:55:24;178.17;;;13.57;;
5630;SDS011;2837;50.990;7.124;2023-01-26T09:57:52;177.17;;;13.93;;
5630;SDS011;2837;50.990;7.124;2023-01-26T10:05:44;178.53;;;12.70;;
5630;SDS011;2837;50.990;7.124;2023-01-26T10:08:17;178.23;;;13.43;;
5630;SDS011;2837;50.990;7.124;2023-01-26T10:10:47;175.70;;;13.70;;
5630;SDS011;2837;50.990;7.124;2023-01-26T10:13:24;178.27;;;14.47;;
5630;SDS011;2837;50.990;7.124;2023-01-26T10:15:51;177.53;;;13.73;;
5630;SDS011;2837;50.990;7.124;2023-01-26T10:18:39;173.47;;;12.90;;
5630;SDS011;2837;50.990;7.124;2023-01-26T10:21:14;180.37;;;13.80;;
5630;SDS011;2837;50.990;7.124;2023-01-26T10:23:46;172.67;;;13.17;;
5630;SDS011;2837;50.990;7.124;2023-01-26T10:26:16;179.77;;;14.10;;
5630;SDS011;2837;50.990;7.124;2023-01-26T10:28:44;177.20;;;13.60;;
5630;SDS011;2837;50.990;7.124;2023-01-26T10:31:22;173.60;;;13.70;;
5630;SDS011;2837;50.990;7.124;2023-01-26T10:33:55;177.30;;;14.67;;
5630;SDS011;2837;50.990;7.124;2023-01-26T10:36:22;174.87;;;12.50;;
5630;SDS011;2837;50.990;7.124;2023-01-26T10:38:49;176.97;;;14.30;;
5630;SDS011;2837;50.990;7.124;2023-01-26T10:43:49;176.07;;;14.13;;
5630;SDS011;2837;50.990;7.124;2023-01-26T10:46:45;176.97;;;12.53;;
5630;SDS011;2837;50.990;7.124;2023-01-26T10:49:15;176.47;;;12.97;;
5630;SDS011;2837;50.990;7.124;2023-01-26T10:51:42;175.27;;;12.17;;
5630;SDS011;2837;50.990;7.124;2023-01-26T10:54:13;179.03;;;14.37;;
5630;SDS011;2837;50.990;7.124;2023-01-26T10:59:20;179.90;;;14.80;;
5630;SDS011;2837;50.990;7.124;2023-01-26T11:01:59;178.97;;;13.37;;
5630;SDS011;2837;50.990;7.124;2023-01-26T11:04:27;177.47;;;13.93;;
5630;SDS011;2837;50.990;7.124;2023-01-26T11:06:54;174.67;;;13.80;;
5630;SDS011;2837;50.990;7.124;2023-01-26T11:09:24;180.20;;;14.60;;
5630;SDS011;2837;50.990;7.124;2023-01-26T11:14:21;177.83;;;14.10;;
5630;SDS011;2837;50.990;7.124;2023-01-26T11:19:52;180.00;;;14.43;;
5630;SDS011;2837;50.990;7.124;2023-01-26T11:22:23;177.87;;;14.80;;
5630;SDS011;2837;50.990;7.124;2023-01-26T11:27:27;176.63;;;13.57;;
5630;SDS011;2837;50.990;7.124;2023-01-26T11:30:29;178.87;;;14.67;;
5630;SDS011;2837;50.990;7.124;2023-01-26T11:38:37;176.97;;;13.63;;
5630;SDS011;2837;50.990;7.124;2023-01-26T11:49:39;180.80;;;15.20;;
5630;SDS011;2837;50.990;7.124;2023-01-26T11:52:29;173.87;;;13.37;;
5630;SDS011;2837;50.990;7.124;2023-01-26T11:55:15;179.63;;;14.40;;
5630;SDS011;2837;50.990;7.124;2023-01-26T12:00:48;176.03;;;14.10;;
5630;SDS011;2837;50.990;7.124;2023-01-26T12:03:24;181.37;;;15.73;;
5630;SDS011;2837;50.990;7.124;2023-01-26T12:06:05;179.77;;;14.67;;
5630;SDS011;2837;50.990;7.124;2023-01-26T12:08:38;177.77;;;14.10;;
5630;SDS011;2837;50.990;7.124;2023-01-26T12:11:13;175.70;;;12.97;;
5630;SDS011;2837;50.990;7.124;2023-01-26T12:19:38;176.73;;;13.70;;
5630;SDS011;2837;50.990;7.124;2023-01-26T12:22:43;176.87;;;13.80;;
5630;SDS011;2837;50.990;7.124;2023-01-26T12:30:48;176.10;;;13.90;;
5630;SDS011;2837;50.990;7.124;2023-01-26T12:33:15;175.23;;;14.17;;
5630;SDS011;2837;50.990;7.124;2023-01-26T12:38:15;177.00;;;14.13;;
5630;SDS011;2837;50.990;7.124;2023-01-26T12:40:57;178.83;;;13.67;;
5630;SDS011;2837;50.990;7.124;2023-01-26T12:43:49;176.83;;;14.07;;
5630;SDS011;2837;50.990;7.124;2023-01-26T12:46:17;173.73;;;13.50;;
5630;SDS011;2837;50.990;7.124;2023-01-26T12:48:46;181.67;;;13.90;;
5630;SDS011;2837;50.990;7.124;2023-01-26T12:51:30;174.17;;;12.30;;
5630;SDS011;2837;50.990;7.124;2023-01-26T12:54:02;175.00;;;13.43;;
5630;SDS011;2837;50.990;7.124;2023-01-26T12:56:41;172.47;;;12.37;;
5630;SDS011;2837;50.990;7.124;2023-01-26T12:59:14;176.07;;;12.87;;
5630;SDS011;2837;50.990;7.124;2023-01-26T13:01:57;173.67;;;13.37;;
5630;SDS011;2837;50.990;7.124;2023-01-26T13:04:24;173.33;;;12.90;;
5630;SDS011;2837;50.990;7.124;2023-01-26T13:07:03;179.33;;;13.57;;
5630;SDS011;2837;50.990;7.124;2023-01-26T13:12:46;170.17;;;11.07;;
5630;SDS011;2837;50.990;7.124;2023-01-26T13:15:13;175.60;;;12.90;;
5630;SDS011;2837;50.990;7.124;2023-01-26T13:17:45;173.50;;;12.13;;
5630;SDS011;2837;50.990;7.124;2023-01-26T13:20:25;175.97;;;12.70;;
5630;SDS011;2837;50.990;7.124;2023-01-26T13:26:13;176.03;;;13.10;;
5630;SDS011;2837;50.990;7.124;2023-01-26T13:29:21;174.73;;;13.30;;
5630;SDS011;2837;50.990;7.124;2023-01-26T13:32:49;174.20;;;12.57;;
5630;SDS011;2837;50.990;7.124;2023-01-26T13:37:12;172.03;;;12.03;;
5630;SDS011;2837;50.990;7.124;2023-01-26T13:39:53;174.70;;;12.67;;
5630;SDS011;2837;50.990;7.124;2023-01-26T13:42:24;174.07;;;12.10;;
5630;SDS011;2837;50.990;7.124;2023-01-26T13:44:57;173.00;;;12.30;;
5630;SDS011;2837;50.990;7.124;2023-01-26T13:47:34;170.63;;;11.43;;
5630;SDS011;2837;50.990;7.124;2023-01-26T13:50:47;172.83;;;12.80;;
5630;SDS011;2837;50.990;7.124;2023-01-26T13:52:53;170.87;;;12.23;;
5630;SDS011;2837;50.990;7.124;2023-01-26T13:55:26;172.37;;;12.17;;
5630;SDS011;2837;50.990;7.124;2023-01-26T13:58:10;174.00;;;12.77;;
5630;SDS011;2837;50.990;7.124;2023-01-26T14:00:40;173.07;;;12.30;;
5630;SDS011;2837;50.990;7.124;2023-01-26T14:03:21;171.40;;;13.23;;
5630;SDS011;2837;50.990;7.124;2023-01-26T14:06:00;170.90;;;11.90;;
5630;SDS011;2837;50.990;7.124;2023-01-26T14:08:30;171.53;;;11.33;;
5630;SDS011;2837;50.990;7.124;2023-01-26T14:10:57;175.40;;;12.60;;
5630;SDS011;2837;50.990;7.124;2023-01-26T14:13:31;171.73;;;11.93;;
5630;SDS011;2837;50.990;7.124;2023-01-26T14:16:00;171.87;;;12.47;;
5630;SDS011;2837;50.990;7.124;2023-01-26T14:18:27;171.50;;;11.90;;
5630;SDS011;2837;50.990;7.124;2023-01-26T14:20:57;172.60;;;12.30;;
5630;SDS011;2837;50.990;7.124;2023-01-26T14:23:27;171.80;;;11.23;;
5630;SDS011;2837;50.990;7.124;2023-01-26T14:26:01;170.43;;;10.80;;
5630;SDS011;2837;50.990;7.124;2023-01-26T14:28:43;169.23;;;11.27;;
5630;SDS011;2837;50.990;7.124;2023-01-26T14:31:13;167.80;;;11.60;;
5630;SDS011;2837;50.990;7.124;2023-01-26T14:33:44;168.13;;;10.60;;
5630;SDS011;2837;50.990;7.124;2023-01-26T14:36:12;169.43;;;10.90;;
5630;SDS011;2837;50.990;7.124;2023-01-26T14:38:40;169.50;;;11.00;;
5630;SDS011;2837;50.990;7.124;2023-01-26T14:41:14;170.57;;;11.53;;
5630;SDS011;2837;50.990;7.124;2023-01-26T14:43:47;168.77;;;10.53;;
5630;SDS011;2837;50.990;7.124;2023-01-26T14:46:17;167.23;;;10.10;;
5630;SDS011;2837;50.990;7.124;2023-01-26T14:48:58;174.70;;;12.07;;
5630;SDS011;2837;50.990;7.124;2023-01-26T14:51:37;167.50;;;10.80;;
5630;SDS011;2837;50.990;7.124;2023-01-26T14:54:04;170.07;;;11.40;;
5630;SDS011;2837;50.990;7.124;2023-01-26T14:56:49;167.10;;;10.30;;
5630;SDS011;2837;50.990;7.124;2023-01-26T14:59:22;168.47;;;10.97;;
5630;SDS011;2837;50.990;7.124;2023-01-26T15:02:01;166.17;;;10.80;;
5630;SDS011;2837;50.990;7.124;2023-01-26T15:04:37;168.17;;;10.80;;
5630;SDS011;2837;50.990;7.124;2023-01-26T15:13:35;168.70;;;11.10;;
5630;SDS011;2837;50.990;7.124;2023-01-26T15:16:00;168.40;;;11.37;;
5630;SDS011;2837;50.990;7.124;2023-01-26T15:18:31;166.93;;;10.57;;
5630;SDS011;2837;50.990;7.124;2023-01-26T15:23:30;164.23;;;9.70;;
5630;SDS011;2837;50.990;7.124;2023-01-26T15:28:51;165.30;;;10.10;;
5630;SDS011;2837;50.990;7.124;2023-01-26T15:31:20;165.90;;;9.33;;
5630;SDS011;2837;50.990;7.124;2023-01-26T15:33:52;166.43;;;9.70;;
5630;SDS011;2837;50.990;7.124;2023-01-26T15:39:13;167.37;;;10.40;;
5630;SDS011;2837;50.990;7.124;2023-01-26T15:41:40;165.87;;;10.10;;
5630;SDS011;2837;50.990;7.124;2023-01-26T15:44:17;169.27;;;10.60;;
5630;SDS011;2837;50.990;7.124;2023-01-26T15:46:44;166.30;;;10.80;;
5630;SDS011;2837;50.990;7.124;2023-01-26T15:49:10;166.00;;;9.97;;
5630;SDS011;2837;50.990;7.124;2023-01-26T15:51:42;167.80;;;10.77;;
5630;SDS011;2837;50.990;7.124;2023-01-26T15:54:08;170.17;;;11.57;;
5630;SDS011;2837;50.990;7.124;2023-01-26T15:56:35;166.57;;;9.80;;
5630;SDS011;2837;50.990;7.124;2023-01-26T15:59:00;165.67;;;9.50;;
5630;SDS011;2837;50.990;7.124;2023-01-26T16:01:26;165.93;;;9.80;;
5630;SDS011;2837;50.990;7.124;2023-01-26T16:03:51;166.97;;;10.30;;
5630;SDS011;2837;50.990;7.124;2023-01-26T16:08:50;165.50;;;9.73;;
5630;SDS011;2837;50.990;7.124;2023-01-26T16:11:17;164.87;;;9.60;;
5630;SDS011;2837;50.990;7.124;2023-01-26T16:13:43;166.50;;;9.40;;
5630;SDS011;2837;50.990;7.124;2023-01-26T16:16:10;163.87;;;9.60;;
5630;SDS011;2837;50.990;7.124;2023-01-26T16:18:37;163.97;;;9.40;;
5630;SDS011;2837;50.990;7.124;2023-01-26T16:21:09;166.97;;;10.80;;
5630;SDS011;2837;50.990;7.124;2023-01-26T16:23:38;166.80;;;9.70;;
5630;SDS011;2837;50.990;7.124;2023-01-26T16:26:04;167.87;;;10.60;;
5630;SDS011;2837;50.990;7.124;2023-01-26T16:28:32;164.93;;;10.10;;
5630;SDS011;2837;50.990;7.124;2023-01-26T16:30:57;166.83;;;9.77;;
5630;SDS011;2837;50.990;7.124;2023-01-26T16:33:23;168.80;;;10.23;;
5630;SDS011;2837;50.990;7.124;2023-01-26T16:35:49;165.30;;;9.53;;
5630;SDS011;2837;50.990;7.124;2023-01-26T16:38:14;168.20;;;9.80;;
5630;SDS011;2837;50.990;7.124;2023-01-26T16:40:40;164.73;;;9.47;;
5630;SDS011;2837;50.990;7.124;2023-01-26T16:43:21;169.30;;;10.87;;
5630;SDS011;2837;50.990;7.124;2023-01-26T16:45:49;166.50;;;9.87;;
5630;SDS011;2837;50.990;7.124;2023-01-26T16:48:16;172.60;;;9.77;;
5630;SDS011;2837;50.990;7.124;2023-01-26T16:50:42;166.80;;;10.17;;
5630;SDS011;2837;50.990;7.124;2023-01-26T16:53:42;173.20;;;11.10;;
5630;SDS011;2837;50.990;7.124;2023-01-26T16:56:00;166.20;;;9.57;;
5630;SDS011;2837;50.990;7.124;2023-01-26T16:58:26;171.93;;;10.70;;
5630;SDS011;2837;50.990;7.124;2023-01-26T17:00:54;167.67;;;9.60;;
5630;SDS011;2837;50.990;7.124;2023-01-26T17:03:20;164.60;;;9.90;;
5630;SDS011;2837;50.990;7.124;2023-01-26T17:05:45;166.93;;;10.10;;
5630;SDS011;2837;50.990;7.124;2023-01-26T17:08:11;168.87;;;10.70;;
5630;SDS011;2837;50.990;7.124;2023-01-26T17:10:37;170.50;;;10.83;;
5630;SDS011;2837;50.990;7.124;2023-01-26T17:13:03;169.70;;;11.20;;
5630;SDS011;2837;50.990;7.124;2023-01-26T17:15:28;169.03;;;10.30;;
5630;SDS011;2837;50.990;7.124;2023-01-26T17:17:55;165.37;;;9.73;;
5630;SDS011;2837;50.990;7.124;2023-01-26T17:20:21;165.63;;;10.20;;
5630;SDS011;2837;50.990;7.124;2023-01-26T17:22:47;168.83;;;10.70;;
5630;SDS011;2837;50.990;7.124;2023-01-26T17:25:14;169.00;;;10.97;;
5630;SDS011;2837;50.990;7.124;2023-01-26T17:27:40;170.37;;;10.37;;
5630;SDS011;2837;50.990;7.124;2023-01-26T17:30:06;170.70;;;11.27;;
5630;SDS011;2837;50.990;7.124;2023-01-26T17:32:32;170.53;;;12.10;;
5630;SDS011;2837;50.990;7.124;2023-01-26T17:34:58;169.67;;;10.90;;
5630;SDS011;2837;50.990;7.124;2023-01-26T17:37:25;167.27;;;10.50;;
5630;SDS011;2837;50.990;7.124;2023-01-26T17:39:51;175.47;;;12.07;;
5630;SDS011;2837;50.990;7.124;2023-01-26T17:42:17;175.27;;;11.20;;
5630;SDS011;2837;50.990;7.124;2023-01-26T17:44:43;173.47;;;11.00;;
5630;SDS011;2837;50.990;7.124;2023-01-26T17:47:09;169.93;;;11.60;;
5630;SDS011;2837;50.990;7.124;2023-01-26T17:49:35;169.37;;;11.47;;
5630;SDS011;2837;50.990;7.124;2023-01-26T17:52:02;171.60;;;11.77;;
5630;SDS011;2837;50.990;7.124;2023-01-26T17:54:28;170.80;;;12.33;;
5630;SDS011;2837;50.990;7.124;2023-01-26T17:56:54;175.90;;;12.70;;
5630;SDS011;2837;50.990;7.124;2023-01-26T17:59:20;172.07;;;11.40;;
5630;SDS011;2837;50.990;7.124;2023-01-26T18:01:46;168.00;;;11.90;;
5630;SDS011;2837;50.990;7.124;2023-01-26T18:04:11;170.60;;;11.50;;
5630;SDS011;2837;50.990;7.124;2023-01-26T18:06:37;175.83;;;11.67;;
5630;SDS011;2837;50.990;7.124;2023-01-26T18:09:03;176.73;;;12.07;;
5630;SDS011;2837;50.990;7.124;2023-01-26T18:11:29;173.87;;;12.47;;
5630;SDS011;2837;50.990;7.124;2023-01-26T18:13:55;170.53;;;12.00;;
5630;SDS011;2837;50.990;7.124;2023-01-26T18:16:21;176.10;;;13.43;;
5630;SDS011;2837;50.990;7.124;2023-01-26T18:18:47;172.13;;;11.73;;
5630;SDS011;2837;50.990;7.124;2023-01-26T18:21:18;170.47;;;11.90;;
5630;SDS011;2837;50.990;7.124;2023-01-26T18:23:47;173.97;;;12.63;;
5630;SDS011;2837;50.990;7.124;2023-01-26T18:26:17;175.87;;;13.13;;
5630;SDS011;2837;50.990;7.124;2023-01-26T18:28:45;173.47;;;13.03;;
5630;SDS011;2837;50.990;7.124;2023-01-26T18:31:12;174.87;;;13.67;;
5630;SDS011;2837;50.990;7.124;2023-01-26T18:33:38;173.90;;;13.60;;
5630;SDS011;2837;50.990;7.124;2023-01-26T18:36:04;176.73;;;13.47;;
5630;SDS011;2837;50.990;7.124;2023-01-26T18:38:33;173.47;;;12.23;;
5630;SDS011;2837;50.990;7.124;2023-01-26T18:40:59;173.63;;;13.00;;
5630;SDS011;2837;50.990;7.124;2023-01-26T18:43:25;176.20;;;13.33;;
5630;SDS011;2837;50.990;7.124;2023-01-26T18:45:56;178.60;;;13.20;;
5630;SDS011;2837;50.990;7.124;2023-01-26T18:48:26;176.37;;;12.60;;
5630;SDS011;2837;50.990;7.124;2023-01-26T18:50:52;174.73;;;12.77;;
5630;SDS011;2837;50.990;7.124;2023-01-26T18:53:18;177.63;;;12.80;;
5630;SDS011;2837;50.990;7.124;2023-01-26T18:55:44;169.57;;;12.17;;
5630;SDS011;2837;50.990;7.124;2023-01-26T18:58:09;180.77;;;12.97;;
5630;SDS011;2837;50.990;7.124;2023-01-26T19:00:35;172.53;;;12.03;;
5630;SDS011;2837;50.990;7.124;2023-01-26T19:03:01;171.97;;;12.30;;
5630;SDS011;2837;50.990;7.124;2023-01-26T19:05:28;173.60;;;12.63;;
5630;SDS011;2837;50.990;7.124;2023-01-26T19:07:54;177.40;;;12.07;;
5630;SDS011;2837;50.990;7.124;2023-01-26T19:10:20;175.20;;;12.83;;
5630;SDS011;2837;50.990;7.124;2023-01-26T19:12:47;173.10;;;12.80;;
5630;SDS011;2837;50.990;7.124;2023-01-26T19:15:13;178.50;;;12.67;;
5630;SDS011;2837;50.990;7.124;2023-01-26T19:17:39;178.17;;;13.47;;
5630;SDS011;2837;50.990;7.124;2023-01-26T19:20:08;178.03;;;14.60;;
5630;SDS011;2837;50.990;7.124;2023-01-26T19:22:36;181.60;;;16.77;;
5630;SDS011;2837;50.990;7.124;2023-01-26T19:25:01;183.90;;;17.70;;
5630;SDS011;2837;50.990;7.124;2023-01-26T19:27:28;184.80;;;17.10;;
5630;SDS011;2837;50.990;7.124;2023-01-26T19:29:55;177.17;;;15.50;;
5630;SDS011;2837;50.990;7.124;2023-01-26T19:32:20;181.87;;;16.00;;
5630;SDS011;2837;50.990;7.124;2023-01-26T19:34:46;180.20;;;15.40;;
5630;SDS011;2837;50.990;7.124;2023-01-26T19:37:12;174.10;;;14.77;;
5630;SDS011;2837;50.990;7.124;2023-01-26T19:39:37;176.40;;;14.70;;
5630;SDS011;2837;50.990;7.124;2023-01-26T19:42:03;176.30;;;15.20;;
5630;SDS011;2837;50.990;7.124;2023-01-26T19:44:28;179.37;;;16.63;;
5630;SDS011;2837;50.990;7.124;2023-01-26T19:46:54;186.33;;;18.20;;
5630;SDS011;2837;50.990;7.124;2023-01-26T19:49:20;202.20;;;26.70;;
5630;SDS011;2837;50.990;7.124;2023-01-26T19:51:46;217.10;;;30.47;;
5630;SDS011;2837;50.990;7.124;2023-01-26T19:54:12;190.33;;;18.90;;
5630;SDS011;2837;50.990;7.124;2023-01-26T19:56:38;181.50;;;17.30;;
5630;SDS011;2837;50.990;7.124;2023-01-26T19:59:04;188.20;;;18.87;;
5630;SDS011;2837;50.990;7.124;2023-01-26T20:01:32;176.97;;;16.37;;
5630;SDS011;2837;50.990;7.124;2023-01-26T20:04:02;190.00;;;20.40;;
5630;SDS011;2837;50.990;7.124;2023-01-26T20:06:33;181.17;;;16.70;;
5630;SDS011;2837;50.990;7.124;2023-01-26T20:09:01;172.27;;;12.20;;
5630;SDS011;2837;50.990;7.124;2023-01-26T20:11:27;174.57;;;12.17;;
5630;SDS011;2837;50.990;7.124;2023-01-26T20:13:54;173.67;;;11.97;;
5630;SDS011;2837;50.990;7.124;2023-01-26T20:16:20;178.33;;;14.77;;
5630;SDS011;2837;50.990;7.124;2023-01-26T20:18:46;176.53;;;14.90;;
5630;SDS011;2837;50.990;7.124;2023-01-26T20:21:12;175.80;;;14.50;;
5630;SDS011;2837;50.990;7.124;2023-01-26T20:23:37;179.43;;;15.60;;
5630;SDS011;2837;50.990;7.124;2023-01-26T20:26:07;187.47;;;20.50;;
5630;SDS011;2837;50.990;7.124;2023-01-26T20:28:34;180.60;;;15.77;;
5630;SDS011;2837;50.990;7.124;2023-01-26T20:31:06;176.87;;;13.60;;
5630;SDS011;2837;50.990;7.124;2023-01-26T20:33:31;175.47;;;13.70;;
5630;SDS011;2837;50.990;7.124;2023-01-26T20:35:57;175.53;;;12.97;;
5630;SDS011;2837;50.990;7.124;2023-01-26T20:38:22;178.63;;;13.77;;
5630;SDS011;2837;50.990;7.124;2023-01-26T20:40:48;177.17;;;14.20;;
5630;SDS011;2837;50.990;7.124;2023-01-26T20:43:13;172.17;;;13.20;;
5630;SDS011;2837;50.990;7.124;2023-01-26T20:45:39;173.87;;;13.77;;
5630;SDS011;2837;50.990;7.124;2023-01-26T20:48:05;170.90;;;13.00;;
5630;SDS011;2837;50.990;7.124;2023-01-26T20:50:33;175.53;;;13.20;;
5630;SDS011;2837;50.990;7.124;2023-01-26T20:53:04;170.10;;;12.73;;
5630;SDS011;2837;50.990;7.124;2023-01-26T20:55:32;168.87;;;11.90;;
5630;SDS011;2837;50.990;7.124;2023-01-26T20:57:58;173.03;;;12.87;;
5630;SDS011;2837;50.990;7.124;2023-01-26T21:00:24;173.33;;;12.90;;
5630;SDS011;2837;50.990;7.124;2023-01-26T21:02:49;175.53;;;12.53;;
5630;SDS011;2837;50.990;7.124;2023-01-26T21:05:15;172.73;;;14.17;;
5630;SDS011;2837;50.990;7.124;2023-01-26T21:07:40;169.33;;;12.10;;
5630;SDS011;2837;50.990;7.124;2023-01-26T21:10:06;169.23;;;12.17;;
5630;SDS011;2837;50.990;7.124;2023-01-26T21:12:35;173.63;;;12.27;;
5630;SDS011;2837;50.990;7.124;2023-01-26T21:15:02;169.37;;;11.77;;
5630;SDS011;2837;50.990;7.124;2023-01-26T21:17:28;168.23;;;11.27;;
5630;SDS011;2837;50.990;7.124;2023-01-26T21:19:54;169.37;;;12.07;;
5630;SDS011;2837;50.990;7.124;2023-01-26T21:22:19;169.90;;;11.70;;
5630;SDS011;2837;50.990;7.124;2023-01-26T21:24:45;171.57;;;12.40;;
5630;SDS011;2837;50.990;7.124;2023-01-26T21:27:11;173.77;;;12.50;;
5630;SDS011;2837;50.990;7.124;2023-01-26T21:29:37;172.37;;;12.20;;
5630;SDS011;2837;50.990;7.124;2023-01-26T21:32:04;174.23;;;12.17;;
5630;SDS011;2837;50.990;7.124;2023-01-26T21:34:33;166.63;;;11.00;;
5630;SDS011;2837;50.990;7.124;2023-01-26T21:36:58;166.87;;;10.67;;
5630;SDS011;2837;50.990;7.124;2023-01-26T21:39:24;176.40;;;11.63;;
5630;SDS011;2837;50.990;7.124;2023-01-26T21:41:50;171.90;;;11.60;;
5630;SDS011;2837;50.990;7.124;2023-01-26T21:44:28;171.83;;;12.37;;
5630;SDS011;2837;50.990;7.124;2023-01-26T21:46:56;169.03;;;11.80;;
5630;SDS011;2837;50.990;7.124;2023-01-26T21:49:23;169.77;;;11.27;;
5630;SDS011;2837;50.990;7.124;2023-01-26T21:51:50;170.33;;;11.17;;
5630;SDS011;2837;50.990;7.124;2023-01-26T21:54:34;169.40;;;11.10;;
5630;SDS011;2837;50.990;7.124;2023-01-26T21:57:01;167.27;;;11.13;;
5630;SDS011;2837;50.990;7.124;2023-01-26T21:59:28;170.87;;;11.77;;
